首页
METAR-TAF:

METAR-TAF

机场 :

奥罗拉, 伊利诺伊州, 美国

纬度: 41-46-12N, 经度: 088-28-53W, 海拔: 215米

当前天气观测

该预报发布于45分钟前的13:52 UTC
风速4节,风向北转西北
温度 -9°C
湿度 79%
气压 1035 hPa
能見度: 14.5公里
阴天层高于5000英尺

METAR: KARR 201352Z 33004KT 9SM OVC050 M09/M12 A3057 RMK AO2 SLP367 T10891117 $

时间: 08:37 (14:37 UTC)


TAF: 丢失

超过4000个机场的气象观测和天气预报(METAR&TAF报告)。

可查询的气象台以黄色和红色小点在地图上表示。

将鼠标移到小点上方,可查看气象台名称。

然后点击查看天气观测和预报。

如需切换地图:点击带黑十字的绿色按钮放大地图;点击带横线的绿色按钮缩小地图;或者点击绿色箭头查看邻近地区的地图。


METAR-TAF: